9VS YRED-YSPT

Flight info

Callsign 9VS
Flight time 1h 13m
Altitude 7000
Route BN
Aircraft TBM9/L-SDFGRWY/S

Departure

Time 2026-04-19 10:16
Airport Redcliffe Airport (YRED)

Arrival

Time 2026-04-19 11:30
Airport Southport Airport (YSPT)
Time Latitude Longitude Altitude Speed Heading
2026-04-19 10:07 -27.20547 153.07386 69 ft 0 kts 77°
2026-04-19 10:11 -27.20548 153.07392 10 ft 3 kts 116°
2026-04-19 10:11 -27.20567 153.07404 10 ft 4 kts 156°
2026-04-19 10:11 -27.20594 153.07395 10 ft 5 kts 254°
2026-04-19 10:11 -27.20604 153.07351 10 ft 7 kts 256°
2026-04-19 10:12 -27.20619 153.07281 9 ft 12 kts 256°
2026-04-19 10:12 -27.20617 153.07234 10 ft 3 kts 24°
2026-04-19 10:12 -27.20592 153.07241 11 ft 7 kts 347°
2026-04-19 10:12 -27.20532 153.07224 13 ft 10 kts 346°
2026-04-19 10:13 -27.20519 153.07220 13 ft 0 kts 347°
2026-04-19 10:13 -27.20489 153.07202 14 ft 14 kts 292°
2026-04-19 10:13 -27.20512 153.07072 12 ft 20 kts 256°
2026-04-19 10:14 -27.20548 153.06910 11 ft 23 kts 256°
2026-04-19 10:14 -27.20591 153.06712 5 ft 29 kts 256°
2026-04-19 10:14 -27.20618 153.06590 5 ft 5 kts 255°
2026-04-19 10:14 -27.20633 153.06544 6 ft 8 kts 250°
2026-04-19 10:15 -27.20645 153.06494 6 ft 0 kts 260°
2026-04-19 10:15 -27.20635 153.06486 7 ft 2 kts 44°
2026-04-19 10:15 -27.20635 153.06513 6 ft 5 kts 75°
2026-04-19 10:15 -27.20594 153.06698 5 ft 57 kts 77°
2026-04-19 10:16 -27.20478 153.07278 210 ft 91 kts 77°
2026-04-19 10:16 -27.20296 153.08192 212 ft 146 kts 78°
2026-04-19 10:16 -27.20063 153.09387 557 ft 162 kts 77°
2026-04-19 10:16 -27.19829 153.10584 1357 ft 145 kts 77°
2026-04-19 10:17 -27.19583 153.11654 1970 ft 156 kts 74°
2026-04-19 10:17 -27.19260 153.12855 2509 ft 159 kts 74°
2026-04-19 10:17 -27.18933 153.14002 3148 ft 161 kts 73°
2026-04-19 10:17 -27.18569 153.15279 3437 ft 181 kts 74°
2026-04-19 10:18 -27.18186 153.16621 3931 ft 187 kts 74°
2026-04-19 10:18 -27.17771 153.18047 4392 ft 190 kts 73°
2026-04-19 10:18 -27.17432 153.19440 4909 ft 193 kts 85°
2026-04-19 10:19 -27.18180 153.22436 5434 ft 203 kts 132°
2026-04-19 10:19 -27.19142 153.23561 5836 ft 201 kts 139°
2026-04-19 10:19 -27.20143 153.24706 6215 ft 209 kts 139°
2026-04-19 10:19 -27.21150 153.25856 6773 ft 206 kts 139°
2026-04-19 10:20 -27.22015 153.27297 6590 ft 243 kts 115°
2026-04-19 10:20 -27.22265 153.29268 6454 ft 266 kts 89°
2026-04-19 10:20 -27.21751 153.31258 6689 ft 265 kts 63°
2026-04-19 10:20 -27.20563 153.32803 7016 ft 263 kts 37°
2026-04-19 10:21 -27.18976 153.33827 6996 ft 272 kts 27°
2026-04-19 10:21 -27.17257 153.34784 6977 ft 278 kts 25°
2026-04-19 10:21 -27.15496 153.35720 6985 ft 281 kts 24°
2026-04-19 10:21 -27.13714 153.36646 6988 ft 283 kts 24°
2026-04-19 10:22 -27.11922 153.37563 6989 ft 284 kts 24°
2026-04-19 10:22 -27.10121 153.38476 6989 ft 284 kts 24°
2026-04-19 10:22 -27.08263 153.39262 6987 ft 284 kts 14°
2026-04-19 10:22 -27.06308 153.39384 6981 ft 282 kts 353°
2026-04-19 10:23 -27.04354 153.39506 6976 ft 284 kts 15°
2026-04-19 10:23 -27.02689 153.40662 6977 ft 284 kts 47°
2026-04-19 10:23 -27.01725 153.42551 6976 ft 280 kts 75°
2026-04-19 10:23 -27.01586 153.44659 6975 ft 272 kts 103°
2026-04-19 10:24 -27.02309 153.46557 6978 ft 263 kts 128°
2026-04-19 10:24 -27.03443 153.48147 6983 ft 260 kts 135°
2026-04-19 10:24 -27.04638 153.49663 7002 ft 259 kts 135°
2026-04-19 10:24 -27.05839 153.51193 6984 ft 261 kts 135°
2026-04-19 10:25 -27.07064 153.52759 6572 ft 273 kts 136°
2026-04-19 10:25 -27.08496 153.54182 6076 ft 275 kts 150°
2026-04-19 10:25 -27.10294 153.54844 5565 ft 275 kts 178°
2026-04-19 10:25 -27.12152 153.54421 5064 ft 275 kts 205°
2026-04-19 10:26 -27.13718 153.53208 4571 ft 276 kts 225°
2026-04-19 10:26 -27.14785 153.51455 4088 ft 276 kts 240°
2026-04-19 10:26 -27.15631 153.49553 3661 ft 267 kts 243°
2026-04-19 10:26 -27.16414 153.47686 3242 ft 262 kts 243°
2026-04-19 10:27 -27.17185 153.45847 2851 ft 260 kts 242°
2026-04-19 10:27 -27.18269 153.44281 2586 ft 251 kts 213°
2026-04-19 10:27 -27.19276 153.43682 2584 ft 244 kts 203°
2026-04-19 10:27 -27.20839 153.42959 2585 ft 241 kts 199°
2026-04-19 10:28 -27.22438 153.42430 2581 ft 239 kts 190°
2026-04-19 10:28 -27.24086 153.42233 2580 ft 238 kts 179°
2026-04-19 10:28 -27.25737 153.42352 2577 ft 237 kts 171°
2026-04-19 10:28 -27.27354 153.42727 2576 ft 235 kts 165°
2026-04-19 10:29 -27.28940 153.43174 2577 ft 235 kts 165°
2026-04-19 10:29 -27.30532 153.43628 2577 ft 236 kts 165°
2026-04-19 10:29 -27.32126 153.44092 2575 ft 235 kts 165°
2026-04-19 10:29 -27.33714 153.44471 2581 ft 233 kts 174°
2026-04-19 10:30 -27.35318 153.44240 2578 ft 234 kts 196°
2026-04-19 10:30 -27.36824 153.43603 2579 ft 235 kts 200°
2026-04-19 10:30 -27.38376 153.43078 2575 ft 233 kts 181°
2026-04-19 10:30 -27.39984 153.43310 2577 ft 234 kts 166°
2026-04-19 10:31 -27.41572 153.43733 2576 ft 234 kts 166°
2026-04-19 10:31 -27.43157 153.44079 2582 ft 231 kts 178°
2026-04-19 10:31 -27.44698 153.43579 2580 ft 233 kts 206°
2026-04-19 10:31 -27.46071 153.42587 2587 ft 237 kts 212°
2026-04-19 10:32 -27.47451 153.41537 2589 ft 240 kts 210°
2026-04-19 10:32 -27.48985 153.40881 2587 ft 236 kts 187°
2026-04-19 10:32 -27.50612 153.40690 2588 ft 236 kts 179°
2026-04-19 10:32 -27.52249 153.40732 2581 ft 235 kts 174°
2026-04-19 10:33 -27.53877 153.40871 2583 ft 235 kts 173°
2026-04-19 10:33 -27.55486 153.41021 2584 ft 234 kts 173°
2026-04-19 10:33 -27.57116 153.41184 2587 ft 236 kts 172°
2026-04-19 10:33 -27.58760 153.41366 2594 ft 237 kts 172°
2026-04-19 10:34 -27.60402 153.41554 2592 ft 237 kts 172°
2026-04-19 10:34 -27.62038 153.41729 2590 ft 235 kts 172°
2026-04-19 10:34 -27.63660 153.41894 2586 ft 234 kts 173°
2026-04-19 10:34 -27.65283 153.42069 2587 ft 234 kts 172°
2026-04-19 10:35 -27.66906 153.42238 2592 ft 235 kts 172°
2026-04-19 10:35 -27.68535 153.42408 2586 ft 234 kts 172°
2026-04-19 10:35 -27.70151 153.42587 2590 ft 233 kts 172°
2026-04-19 10:35 -27.71768 153.42776 2593 ft 234 kts 172°
2026-04-19 10:36 -27.73387 153.42946 2592 ft 233 kts 172°
2026-04-19 10:36 -27.75006 153.43107 2594 ft 234 kts 172°
2026-04-19 10:36 -27.76635 153.43019 2590 ft 238 kts 193°
2026-04-19 10:36 -27.78108 153.42140 2586 ft 242 kts 211°
2026-04-19 10:37 -27.79460 153.41009 2591 ft 242 kts 214°
2026-04-19 10:37 -27.80790 153.39883 2592 ft 241 kts 213°
2026-04-19 10:37 -27.82150 153.38768 2592 ft 241 kts 212°
2026-04-19 10:37 -27.83508 153.37653 2599 ft 242 kts 213°
2026-04-19 10:38 -27.84881 153.36546 2594 ft 242 kts 212°
2026-04-19 10:38 -27.86437 153.35953 2583 ft 237 kts 178°
2026-04-19 10:38 -27.88063 153.36133 2584 ft 234 kts 168°
2026-04-19 10:38 -27.89662 153.36472 2586 ft 234 kts 167°
2026-04-19 10:39 -27.91260 153.36821 2589 ft 234 kts 166°
2026-04-19 10:39 -27.92862 153.37151 2592 ft 234 kts 167°
2026-04-19 10:39 -27.94460 153.37469 2594 ft 233 kts 168°
2026-04-19 10:39 -27.96028 153.37885 2594 ft 230 kts 158°
2026-04-19 10:40 -27.97293 153.38957 2590 ft 231 kts 126°
2026-04-19 10:40 -27.97832 153.40650 2588 ft 233 kts 94°
2026-04-19 10:40 -27.97465 153.42423 2589 ft 237 kts 63°
2026-04-19 10:40 -27.96287 153.43742 2587 ft 244 kts 32°
2026-04-19 10:41 -27.94707 153.44478 2592 ft 247 kts 21°
2026-04-19 10:41 -27.93037 153.44957 2589 ft 251 kts
2026-04-19 10:41 -27.91333 153.44585 2585 ft 253 kts 333°
2026-04-19 10:41 -27.90030 153.43290 2591 ft 251 kts 302°
2026-04-19 10:42 -27.89489 153.41462 2593 ft 252 kts 272°
2026-04-19 10:42 -27.89839 153.39551 2593 ft 249 kts 239°
2026-04-19 10:42 -27.90981 153.38148 2594 ft 242 kts 208°
2026-04-19 10:42 -27.92541 153.37548 2602 ft 237 kts 187°
2026-04-19 10:43 -27.94162 153.37603 2603 ft 232 kts 160°
2026-04-19 10:43 -27.95456 153.38596 2604 ft 227 kts 129°
2026-04-19 10:43 -27.96053 153.40227 2606 ft 228 kts 99°
2026-04-19 10:43 -27.96303 153.41984 2599 ft 226 kts 112°
2026-04-19 10:44 -27.97295 153.43327 2595 ft 227 kts 146°
2026-04-19 10:44 -27.98758 153.43974 2593 ft 227 kts 168°
2026-04-19 10:44 -28.00323 153.44214 2598 ft 227 kts 173°
2026-04-19 10:44 -28.01899 153.44401 2601 ft 228 kts 173°
2026-04-19 10:45 -28.03480 153.44603 2604 ft 228 kts 172°
2026-04-19 10:45 -28.05062 153.44817 2604 ft 228 kts 172°
2026-04-19 10:45 -28.06614 153.45030 2605 ft 227 kts 171°
2026-04-19 10:45 -28.08189 153.45256 2602 ft 227 kts 172°
2026-04-19 10:46 -28.09752 153.45499 2606 ft 227 kts 171°
2026-04-19 10:46 -28.11312 153.45741 2607 ft 226 kts 171°
2026-04-19 10:46 -28.12870 153.45986 2611 ft 226 kts 171°
2026-04-19 10:46 -28.14400 153.46377 2606 ft 227 kts 160°
2026-04-19 10:47 -28.15834 153.47134 2607 ft 228 kts 152°
2026-04-19 10:47 -28.17225 153.48010 2611 ft 228 kts 150°
2026-04-19 10:47 -28.18611 153.48880 2610 ft 227 kts 151°
2026-04-19 10:47 -28.19990 153.49739 2612 ft 227 kts 151°
2026-04-19 10:48 -28.21359 153.50593 2610 ft 226 kts 151°
2026-04-19 10:48 -28.22617 153.51652 2601 ft 228 kts 128°
2026-04-19 10:48 -28.23298 153.53286 2604 ft 231 kts 111°
2026-04-19 10:48 -28.23824 153.55019 2608 ft 232 kts 111°
2026-04-19 10:49 -28.24703 153.56490 2602 ft 226 kts 144°
2026-04-19 10:49 -28.26164 153.57067 2601 ft 225 kts 172°
2026-04-19 10:49 -28.27728 153.57161 2606 ft 225 kts 177°
2026-04-19 10:49 -28.29300 153.57205 2609 ft 225 kts 177°
2026-04-19 10:50 -28.30870 153.57270 2611 ft 227 kts 176°
2026-04-19 10:50 -28.32432 153.57353 2606 ft 228 kts 176°
2026-04-19 10:50 -28.34013 153.57458 2612 ft 228 kts 176°
2026-04-19 10:50 -28.35590 153.57566 2610 ft 227 kts 175°
2026-04-19 10:51 -28.37170 153.57539 2611 ft 228 kts 185°
2026-04-19 10:51 -28.38740 153.57213 2607 ft 230 kts 191°
2026-04-19 10:51 -28.40285 153.56745 2609 ft 229 kts 194°
2026-04-19 10:51 -28.41809 153.56217 2607 ft 228 kts 196°
2026-04-19 10:52 -28.43319 153.55659 2625 ft 229 kts 197°
2026-04-19 10:52 -28.44859 153.55226 2611 ft 227 kts 189°
2026-04-19 10:52 -28.46311 153.54536 2609 ft 232 kts 216°
2026-04-19 10:52 -28.47315 153.53103 2604 ft 238 kts 243°
2026-04-19 10:53 -28.47522 153.51229 2601 ft 247 kts 275°
2026-04-19 10:53 -28.46833 153.49455 2601 ft 253 kts 304°
2026-04-19 10:53 -28.45707 153.47926 2606 ft 252 kts 312°
2026-04-19 10:53 -28.44266 153.46800 2601 ft 254 kts 340°
2026-04-19 10:54 -28.42509 153.46623 2603 ft 255 kts
2026-04-19 10:54 -28.40769 153.47029 2608 ft 255 kts 15°
2026-04-19 10:54 -28.39066 153.47510 2611 ft 256 kts 16°
2026-04-19 10:54 -28.37329 153.47993 2611 ft 257 kts 15°
2026-04-19 10:55 -28.35585 153.48473 2613 ft 258 kts 15°
2026-04-19 10:55 -28.33839 153.48942 2618 ft 257 kts 15°
2026-04-19 10:55 -28.32092 153.49406 2617 ft 257 kts 14°
2026-04-19 10:55 -28.30343 153.49864 2617 ft 257 kts 14°
2026-04-19 10:56 -28.28600 153.50293 2614 ft 255 kts
2026-04-19 10:56 -28.26863 153.49965 2602 ft 257 kts 333°
2026-04-19 10:56 -28.25362 153.48874 2610 ft 256 kts 324°
2026-04-19 10:56 -28.23775 153.47959 2604 ft 256 kts 343°
2026-04-19 10:57 -28.22056 153.47543 2611 ft 256 kts 351°
2026-04-19 10:57 -28.20304 153.47138 2607 ft 256 kts 345°
2026-04-19 10:57 -28.18615 153.46508 2608 ft 256 kts 340°
2026-04-19 10:57 -28.16950 153.45789 2607 ft 257 kts 340°
2026-04-19 10:58 -28.15262 153.45123 2611 ft 257 kts 342°
2026-04-19 10:58 -28.13549 153.44545 2609 ft 257 kts 345°
2026-04-19 10:58 -28.11826 153.44000 2604 ft 255 kts 345°
2026-04-19 10:58 -28.10117 153.43436 2613 ft 256 kts 344°
2026-04-19 10:59 -28.08425 153.42830 2612 ft 254 kts 343°
2026-04-19 10:59 -28.06741 153.42214 2612 ft 253 kts 344°
2026-04-19 10:59 -28.05064 153.41613 2612 ft 253 kts 345°
2026-04-19 10:59 -28.03406 153.41038 2610 ft 253 kts 345°
2026-04-19 11:00 -28.01721 153.40462 2612 ft 253 kts 345°
2026-04-19 11:00 -28.00038 153.39891 2611 ft 252 kts 345°
2026-04-19 11:00 -27.98358 153.39314 2610 ft 251 kts 345°
2026-04-19 11:00 -27.96685 153.38739 2613 ft 251 kts 343°
2026-04-19 11:01 -27.95093 153.37917 2610 ft 252 kts 332°
2026-04-19 11:01 -27.93586 153.36896 2605 ft 253 kts 328°
2026-04-19 11:01 -27.92266 153.35588 2598 ft 253 kts 309°
2026-04-19 11:01 -27.91302 153.33934 2596 ft 251 kts 300°
2026-04-19 11:02 -27.90415 153.32234 2602 ft 252 kts 301°
2026-04-19 11:02 -27.89168 153.30884 2590 ft 253 kts 330°
2026-04-19 11:02 -27.87594 153.30007 2597 ft 252 kts 337°
2026-04-19 11:02 -27.85989 153.29216 2605 ft 251 kts 338°
2026-04-19 11:03 -27.84392 153.28405 2602 ft 251 kts 336°
2026-04-19 11:03 -27.82816 153.27560 2603 ft 251 kts 336°
2026-04-19 11:03 -27.81243 153.26695 2607 ft 252 kts 335°
2026-04-19 11:03 -27.79663 153.25818 2604 ft 253 kts 334°
2026-04-19 11:04 -27.78109 153.24875 2603 ft 254 kts 332°
2026-04-19 11:04 -27.76566 153.23882 2605 ft 256 kts 331°
2026-04-19 11:04 -27.75021 153.22872 2600 ft 257 kts 331°
2026-04-19 11:04 -27.73492 153.21876 2601 ft 256 kts 331°
2026-04-19 11:05 -27.71952 153.20878 2595 ft 254 kts 331°
2026-04-19 11:05 -27.70427 153.19881 2598 ft 254 kts 331°
2026-04-19 11:05 -27.68895 153.18877 2598 ft 252 kts 331°
2026-04-19 11:05 -27.67385 153.17883 2596 ft 252 kts 331°
2026-04-19 11:06 -27.65878 153.16881 2598 ft 254 kts 331°
2026-04-19 11:06 -27.64411 153.15754 2592 ft 254 kts 318°
2026-04-19 11:06 -27.63389 153.14128 2590 ft 256 kts 297°
2026-04-19 11:06 -27.62735 153.12262 2587 ft 254 kts 286°
2026-04-19 11:07 -27.62551 153.10306 2587 ft 252 kts 266°
2026-04-19 11:07 -27.62758 153.08330 2587 ft 253 kts 261°
2026-04-19 11:07 -27.62997 153.06388 2589 ft 252 kts 262°
2026-04-19 11:07 -27.63206 153.04417 2590 ft 252 kts 263°
2026-04-19 11:08 -27.63378 153.02439 2588 ft 253 kts 265°
2026-04-19 11:08 -27.63537 153.00463 2584 ft 253 kts 265°
2026-04-19 11:08 -27.63692 152.98486 2582 ft 253 kts 265°
2026-04-19 11:08 -27.63824 152.96509 2579 ft 252 kts 271°
2026-04-19 11:09 -27.63368 152.94621 2575 ft 249 kts 296°
2026-04-19 11:09 -27.62318 152.93111 2580 ft 245 kts 321°
2026-04-19 11:09 -27.61021 152.91904 2586 ft 245 kts 324°
2026-04-19 11:09 -27.59680 152.90715 2582 ft 244 kts 323°
2026-04-19 11:10 -27.58354 152.89517 2584 ft 245 kts 323°
2026-04-19 11:10 -27.56916 152.88530 2576 ft 241 kts 343°
2026-04-19 11:10 -27.55275 152.88396 2572 ft 238 kts 14°
2026-04-19 11:10 -27.53833 152.89232 2580 ft 233 kts 43°
2026-04-19 11:11 -27.52704 152.90540 2585 ft 232 kts 49°
2026-04-19 11:11 -27.52053 152.91496 2585 ft 231 kts 58°
2026-04-19 11:11 -27.51014 152.93600 2587 ft 229 kts 62°
2026-04-19 11:11 -27.50482 152.94637 2588 ft 231 kts 60°
2026-04-19 11:12 -27.49649 152.96175 2583 ft 222 kts 60°
2026-04-19 11:12 -27.48882 152.98197 2577 ft 207 kts 73°
2026-04-19 11:12 -27.48615 152.99232 2583 ft 203 kts 71°
2026-04-19 11:12 -27.47876 153.00541 2582 ft 200 kts 49°
2026-04-19 11:13 -27.46925 153.01660 2582 ft 196 kts 57°
2026-04-19 11:13 -27.46599 153.03109 2587 ft 194 kts 91°
2026-04-19 11:13 -27.46743 153.04608 2588 ft 192 kts 96°
2026-04-19 11:13 -27.46670 153.06086 2585 ft 190 kts 74°
2026-04-19 11:14 -27.46230 153.07495 2593 ft 192 kts 70°
2026-04-19 11:14 -27.45770 153.08920 2593 ft 194 kts 71°
2026-04-19 11:14 -27.45334 153.10364 2595 ft 194 kts 76°
2026-04-19 11:14 -27.45284 153.11881 2598 ft 195 kts 92°
2026-04-19 11:15 -27.45394 153.13414 2599 ft 197 kts 94°
2026-04-19 11:15 -27.45460 153.14959 2602 ft 197 kts 92°
2026-04-19 11:15 -27.45485 153.16509 2602 ft 198 kts 92°
2026-04-19 11:15 -27.45488 153.18037 2605 ft 197 kts 91°
2026-04-19 11:16 -27.45484 153.19571 2603 ft 195 kts 91°
2026-04-19 11:16 -27.45615 153.21080 2598 ft 194 kts 108°
2026-04-19 11:16 -27.46350 153.22352 2596 ft 196 kts 134°
2026-04-19 11:16 -27.47401 153.23327 2602 ft 195 kts 141°
2026-04-19 11:17 -27.48487 153.24237 2603 ft 195 kts 142°
2026-04-19 11:17 -27.49578 153.25173 2604 ft 197 kts 141°
2026-04-19 11:17 -27.50711 153.26155 2612 ft 219 kts 141°
2026-04-19 11:17 -27.51970 153.27222 2612 ft 233 kts 141°
2026-04-19 11:18 -27.53278 153.28319 2728 ft 237 kts 142°
2026-04-19 11:18 -27.54587 153.29443 2980 ft 234 kts 142°
2026-04-19 11:18 -27.55859 153.30583 3233 ft 234 kts 141°
2026-04-19 11:18 -27.57111 153.31755 3483 ft 235 kts 141°
2026-04-19 11:19 -27.58364 153.32952 3724 ft 236 kts 142°
2026-04-19 11:19 -27.59611 153.34163 3968 ft 237 kts 141°
2026-04-19 11:19 -27.60859 153.35389 4097 ft 243 kts 141°
2026-04-19 11:19 -27.62161 153.36658 4100 ft 250 kts 141°
2026-04-19 11:20 -27.63492 153.37944 4106 ft 254 kts 142°
2026-04-19 11:20 -27.64822 153.39236 4109 ft 256 kts 141°
2026-04-19 11:20 -27.66175 153.40564 4111 ft 258 kts 142°
2026-04-19 11:20 -27.67527 153.41897 4110 ft 259 kts 142°
2026-04-19 11:21 -27.68910 153.43189 4115 ft 256 kts 148°
2026-04-19 11:21 -27.70502 153.44007 4112 ft 251 kts 172°
2026-04-19 11:21 -27.72203 153.43799 4103 ft 247 kts 198°
2026-04-19 11:22 -27.75510 153.42335 3489 ft 264 kts 198°
2026-04-19 11:22 -27.77301 153.41768 3118 ft 269 kts 193°
2026-04-19 11:22 -27.79121 153.41276 2753 ft 269 kts 189°
2026-04-19 11:22 -27.80949 153.41301 2380 ft 266 kts 170°
2026-04-19 11:23 -27.82796 153.41426 2004 ft 264 kts 184°
2026-04-19 11:23 -27.84491 153.40768 1623 ft 254 kts 202°
2026-04-19 11:23 -27.86027 153.39863 1239 ft 236 kts 204°
2026-04-19 11:23 -27.87410 153.39095 1105 ft 212 kts 200°
2026-04-19 11:24 -27.88715 153.38439 1102 ft 200 kts 198°
2026-04-19 11:24 -27.89969 153.37820 1100 ft 194 kts 199°
2026-04-19 11:24 -27.91205 153.37239 1096 ft 191 kts 199°
2026-04-19 11:24 -27.92434 153.36673 1101 ft 190 kts 198°
2026-04-19 11:25 -27.93622 153.36020 1104 ft 192 kts 211°
2026-04-19 11:25 -27.94404 153.34805 1100 ft 201 kts 249°
2026-04-19 11:25 -27.94399 153.33238 1098 ft 204 kts 289°
2026-04-19 11:25 -27.93560 153.31988 1105 ft 202 kts 327°
2026-04-19 11:26 -27.92234 153.31583 1104 ft 197 kts
2026-04-19 11:26 -27.90900 153.31858 1106 ft 193 kts 19°
2026-04-19 11:26 -27.89707 153.32487 1116 ft 188 kts 37°
2026-04-19 11:26 -27.88628 153.33328 1119 ft 187 kts 39°
2026-04-19 11:27 -27.87613 153.34135 1111 ft 172 kts 38°
2026-04-19 11:27 -27.86648 153.34876 1102 ft 165 kts 39°
2026-04-19 11:27 -27.85960 153.35737 1094 ft 132 kts 69°
2026-04-19 11:27 -27.85637 153.36719 1106 ft 142 kts 73°
2026-04-19 11:28 -27.85440 153.37809 1106 ft 143 kts 102°
2026-04-19 11:28 -27.85987 153.38684 1116 ft 145 kts 148°
2026-04-19 11:28 -27.87001 153.38799 1114 ft 152 kts 184°
2026-04-19 11:28 -27.88026 153.38456 1004 ft 160 kts 194°
2026-04-19 11:29 -27.89124 153.38138 736 ft 160 kts 177°
2026-04-19 11:29 -27.90230 153.38068 460 ft 156 kts 185°
2026-04-19 11:29 -27.91220 153.37615 247 ft 161 kts 199°
2026-04-19 11:29 -27.92251 153.37140 128 ft 131 kts 200°
2026-04-19 11:30 -27.92694 153.36949 3 ft 1 kts 69°
2026-04-19 11:30 -27.92693 153.36950 3 ft 0 kts 69°